createdAt,value
2023-01-13T00:01:27.062Z,100249.34
2023-01-13T00:03:54.428Z,100246.84
2023-01-13T00:06:25.919Z,100244.47
2023-01-13T00:08:54.104Z,100246.63
2023-01-13T00:11:22.382Z,100249.25
2023-01-13T00:13:49.665Z,100258.56
2023-01-13T00:16:18.637Z,100264.47
2023-01-13T00:18:46.313Z,100248.28
2023-01-13T00:21:16.595Z,100244.13
2023-01-13T00:23:44.306Z,100249.66
2023-01-13T00:26:15.794Z,100242.03
2023-01-13T00:28:43.226Z,100237.09
2023-01-13T00:31:21.487Z,100249.25
2023-01-13T00:33:49.464Z,100245.84
2023-01-13T00:36:18.739Z,100246.16
2023-01-13T00:38:45.916Z,100242.91
2023-01-13T00:41:15.923Z,100247.34
2023-01-13T00:43:43.183Z,100233.22
2023-01-13T00:46:12.502Z,100241.81
2023-01-13T00:48:39.670Z,100237.00
2023-01-13T00:51:18.774Z,100236.84
2023-01-13T00:53:49.090Z,100238.00
2023-01-13T00:56:34.012Z,100236.63
2023-01-13T00:59:05.443Z,100235.38
2023-01-13T01:01:33.005Z,100217.06
2023-01-13T01:04:00.098Z,100212.28
2023-01-13T01:06:28.283Z,100211.81
2023-01-13T01:08:56.468Z,100214.06
2023-01-13T01:11:29.654Z,100204.31
2023-01-13T01:13:59.014Z,100201.63
2023-01-13T01:16:27.880Z,100188.03
2023-01-13T01:18:55.349Z,100189.56
2023-01-13T01:21:24.150Z,100190.38
2023-01-13T01:23:51.276Z,100194.03
2023-01-13T01:26:24.207Z,100191.94
2023-01-13T01:28:52.068Z,100189.75
2023-01-13T01:31:25.000Z,100192.00
2023-01-13T01:33:53.274Z,100177.81
2023-01-13T01:36:22.193Z,100189.91
2023-01-13T01:38:50.001Z,100178.59
2023-01-13T01:41:20.431Z,100179.38
2023-01-13T01:44:04.616Z,100181.75
2023-01-13T01:46:38.534Z,100183.31
2023-01-13T01:49:17.831Z,100183.69
2023-01-13T01:52:04.569Z,100176.19
2023-01-13T01:54:45.498Z,100178.19
2023-01-13T01:57:17.141Z,100166.22
2023-01-13T01:59:45.005Z,100163.88
2023-01-13T02:02:12.428Z,100137.09
2023-01-13T02:04:43.471Z,100146.19
2023-01-13T02:07:10.964Z,100126.41
2023-01-13T02:09:38.140Z,100137.09
2023-01-13T02:12:23.774Z,100146.59
2023-01-13T02:14:50.893Z,100127.78
2023-01-13T02:17:29.869Z,100148.75
2023-01-13T02:20:22.813Z,100141.19
2023-01-13T02:23:38.873Z,100141.84
2023-01-13T02:26:24.184Z,100149.22
2023-01-13T02:29:26.122Z,100147.44
2023-01-13T02:31:59.466Z,100163.59
2023-01-13T02:34:41.184Z,100129.31
2023-01-13T02:37:17.069Z,100147.75
2023-01-13T02:40:10.697Z,100139.91
2023-01-13T02:43:03.151Z,100146.53
2023-01-13T02:45:40.255Z,100149.13
2023-01-13T02:48:09.566Z,100145.75
2023-01-13T02:50:41.656Z,100150.06
2023-01-13T02:53:20.406Z,100159.50
2023-01-13T02:55:51.624Z,100147.06
2023-01-13T02:58:24.458Z,100142.84
2023-01-13T03:00:52.481Z,100149.19
2023-01-13T03:03:19.876Z,100146.03
2023-01-13T03:05:49.929Z,100149.03
2023-01-13T03:08:43.194Z,100150.22
2023-01-13T03:11:13.244Z,100155.59
2023-01-13T03:14:04.613Z,100155.66
2023-01-13T03:16:59.862Z,100149.28
2023-01-13T03:19:57.339Z,100144.06
2023-01-13T03:23:22.732Z,100137.34
2023-01-13T03:26:01.867Z,100134.84
2023-01-13T03:28:36.225Z,100133.44
2023-01-13T03:31:13.873Z,100145.03
2023-01-13T03:34:05.004Z,100141.13
2023-01-13T03:36:32.780Z,100145.34
2023-01-13T03:39:08.312Z,100148.34
2023-01-13T03:42:00.081Z,100139.28
2023-01-13T03:44:33.991Z,100145.28
2023-01-13T03:47:04.282Z,100139.44
2023-01-13T03:49:51.110Z,100135.72
2023-01-13T03:52:35.272Z,100130.66
2023-01-13T03:55:18.782Z,100122.81
2023-01-13T03:58:06.951Z,100132.22
2023-01-13T04:00:46.282Z,100143.00
2023-01-13T04:03:39.597Z,100146.13
2023-01-13T04:06:40.594Z,100150.53
2023-01-13T04:09:41.796Z,100147.75
2023-01-13T04:12:19.284Z,100150.84
2023-01-13T04:14:46.827Z,100147.59
2023-01-13T04:17:14.165Z,100139.34
2023-01-13T04:19:41.211Z,100134.63
2023-01-13T04:22:08.209Z,100132.94
2023-01-13T04:24:35.314Z,100133.81
2023-01-13T04:27:02.539Z,100137.13
2023-01-13T04:29:29.537Z,100146.44
2023-01-13T04:31:56.541Z,100134.69
2023-01-13T04:34:23.492Z,100136.50
2023-01-13T04:36:50.527Z,100142.69
2023-01-13T04:39:18.182Z,100153.41
2023-01-13T04:42:01.383Z,100156.66
2023-01-13T04:44:31.448Z,100145.28
2023-01-13T04:46:58.915Z,100155.13
2023-01-13T04:49:27.334Z,100161.88
2023-01-13T04:51:54.345Z,100153.72
2023-01-13T04:54:21.442Z,100147.19
2023-01-13T04:56:48.571Z,100144.19
2023-01-13T04:59:15.659Z,100146.25
2023-01-13T05:01:42.987Z,100151.09
2023-01-13T05:04:10.204Z,100153.56
2023-01-13T05:06:37.324Z,100157.75
2023-01-13T05:09:04.321Z,100163.50
2023-01-13T05:11:50.296Z,100167.25
2023-01-13T05:14:35.832Z,100171.41
2023-01-13T05:17:03.756Z,100168.66
2023-01-13T05:19:34.242Z,100164.66
2023-01-13T05:22:20.759Z,100176.56
2023-01-13T05:25:06.327Z,100179.34
2023-01-13T05:27:33.894Z,100180.94
2023-01-13T05:30:01.309Z,100178.63
2023-01-13T05:32:28.726Z,100177.53
2023-01-13T05:34:56.407Z,100169.91
2023-01-13T05:37:24.483Z,100164.19
2023-01-13T05:40:10.548Z,100181.03
2023-01-13T05:42:56.204Z,100168.53
2023-01-13T05:45:23.776Z,100179.56
2023-01-13T05:47:50.832Z,100166.22
2023-01-13T05:50:18.192Z,100158.34
2023-01-13T05:52:45.155Z,100162.75
2023-01-13T05:55:12.598Z,100169.19
2023-01-13T05:57:40.542Z,100175.50
2023-01-13T06:00:08.289Z,100169.44
2023-01-13T06:02:41.551Z,100162.31
2023-01-13T06:05:08.920Z,100173.28
2023-01-13T06:07:35.885Z,100165.44
2023-01-13T06:10:02.901Z,100179.03
2023-01-13T06:12:30.748Z,100164.38
2023-01-13T06:14:57.759Z,100167.16
2023-01-13T06:17:24.757Z,100156.72
2023-01-13T06:19:51.786Z,100159.53
2023-01-13T06:22:23.411Z,100167.06
2023-01-13T06:24:51.343Z,100159.75
2023-01-13T06:27:18.664Z,100162.97
2023-01-13T06:29:45.673Z,100152.84
2023-01-13T06:32:17.451Z,100157.00
2023-01-13T06:34:49.469Z,100163.78
2023-01-13T06:37:21.749Z,100164.75
2023-01-13T06:39:49.565Z,100165.00
2023-01-13T06:42:35.322Z,100158.63
2023-01-13T06:45:02.491Z,100165.22
2023-01-13T06:47:30.102Z,100164.75
2023-01-13T06:49:57.447Z,100163.22
2023-01-13T06:52:24.579Z,100170.31
2023-01-13T06:54:51.756Z,100165.22
2023-01-13T06:57:18.754Z,100164.38
2023-01-13T06:59:45.783Z,100163.25
2023-01-13T07:02:12.888Z,100155.56
2023-01-13T07:04:39.949Z,100157.53
2023-01-13T07:07:08.133Z,100157.56
2023-01-13T07:09:35.124Z,100159.91
2023-01-13T07:12:02.218Z,100172.06
2023-01-13T07:14:47.668Z,100158.66
2023-01-13T07:17:14.678Z,100156.38
2023-01-13T07:19:41.765Z,100163.91
2023-01-13T07:22:08.796Z,100165.47
2023-01-13T07:24:35.825Z,100157.56
2023-01-13T07:27:02.775Z,100175.53
2023-01-13T07:29:29.781Z,100174.00
2023-01-13T07:31:56.952Z,100173.84
2023-01-13T07:34:24.065Z,100176.31
2023-01-13T07:36:51.027Z,100164.34
2023-01-13T07:39:18.106Z,100178.78
2023-01-13T07:42:03.629Z,100176.63
2023-01-13T07:44:30.666Z,100178.16
2023-01-13T07:46:57.645Z,100181.91
2023-01-13T07:49:24.741Z,100183.75
2023-01-13T07:51:51.881Z,100191.84
2023-01-13T07:54:35.112Z,100183.56
2023-01-13T07:57:07.038Z,100186.44
2023-01-13T07:59:34.022Z,100184.56
2023-01-13T08:02:01.235Z,100180.13
2023-01-13T08:04:28.518Z,100180.72
2023-01-13T08:06:58.261Z,100179.00
2023-01-13T08:09:26.128Z,100182.84
2023-01-13T08:12:14.414Z,100179.91
2023-01-13T08:14:41.810Z,100179.91
2023-01-13T08:17:09.861Z,100166.91
2023-01-13T08:19:37.043Z,100175.53
2023-01-13T08:22:04.118Z,100172.91
2023-01-13T08:24:31.176Z,100180.06
2023-01-13T08:26:58.273Z,100181.50
2023-01-13T08:29:25.354Z,100166.91
2023-01-13T08:31:52.366Z,100184.72
2023-01-13T08:34:19.603Z,100190.31
2023-01-13T08:36:49.134Z,100186.84
2023-01-13T08:39:16.229Z,100187.00
2023-01-13T08:41:55.917Z,100179.81
2023-01-13T08:44:24.865Z,100182.75
2023-01-13T08:46:52.209Z,100180.41
2023-01-13T08:49:19.802Z,100180.75
2023-01-13T08:51:46.968Z,100184.72
2023-01-13T08:54:14.771Z,100174.69
2023-01-13T08:56:43.581Z,100172.34
2023-01-13T08:59:15.313Z,100177.13
2023-01-13T09:01:42.852Z,100161.00
2023-01-13T09:04:17.929Z,100171.56
2023-01-13T09:06:45.354Z,100164.38
2023-01-13T09:09:12.856Z,100159.22
2023-01-13T09:12:01.970Z,100156.09
2023-01-13T09:14:31.699Z,100159.31
2023-01-13T09:16:59.659Z,100156.97
2023-01-13T09:19:28.251Z,100151.97
2023-01-13T09:21:57.449Z,100150.69
2023-01-13T09:24:25.319Z,100144.28
2023-01-13T09:26:52.669Z,100142.44
2023-01-13T09:29:19.894Z,100132.03
2023-01-13T09:31:48.332Z,100136.47
2023-01-13T09:34:36.895Z,100139.78
2023-01-13T09:37:06.345Z,100147.78
2023-01-13T09:39:34.859Z,100139.69
2023-01-13T09:42:58.866Z,100145.59
2023-01-13T09:45:42.677Z,100134.69
2023-01-13T09:48:29.400Z,100140.03
2023-01-13T09:51:25.160Z,100139.75
2023-01-13T09:53:59.290Z,100129.22
2023-01-13T09:56:26.893Z,100132.22
2023-01-13T09:58:54.253Z,100148.31
2023-01-13T10:01:32.673Z,100140.97
2023-01-13T10:04:11.911Z,100144.34
2023-01-13T10:06:45.771Z,100133.03
2023-01-13T10:09:25.956Z,100145.09
2023-01-13T10:12:15.012Z,100140.81
2023-01-13T10:14:47.672Z,100141.41
2023-01-13T10:17:39.400Z,100145.94
2023-01-13T10:20:17.045Z,100149.00
2023-01-13T10:22:43.990Z,100137.69
2023-01-13T10:25:32.748Z,100132.97
2023-01-13T10:28:10.713Z,100135.47
2023-01-13T10:30:43.466Z,100135.66
2023-01-13T10:33:17.767Z,100134.06
2023-01-13T10:35:58.173Z,100138.19
2023-01-13T10:38:36.574Z,100140.13
2023-01-13T10:41:17.125Z,100131.16
2023-01-13T10:44:09.356Z,100145.59
2023-01-13T10:46:55.318Z,100137.84
2023-01-13T10:49:38.801Z,100146.88
2023-01-13T10:52:28.214Z,100143.44
2023-01-13T10:54:55.978Z,100150.00
2023-01-13T10:57:25.233Z,100138.38
2023-01-13T10:59:53.239Z,100156.16
2023-01-13T11:02:29.907Z,100149.44
2023-01-13T11:04:58.259Z,100151.00
2023-01-13T11:07:31.141Z,100141.25
2023-01-13T11:10:22.357Z,100137.25
2023-01-13T11:13:01.368Z,100150.00
2023-01-13T11:15:57.904Z,100140.19
2023-01-13T11:19:14.338Z,100138.31
2023-01-13T11:21:50.659Z,100122.19
2023-01-13T11:24:40.907Z,100148.66
2023-01-13T11:27:46.690Z,100139.53
2023-01-13T11:30:48.501Z,100138.19
2023-01-13T11:33:16.973Z,100142.09
2023-01-13T11:36:09.415Z,100145.75
2023-01-13T11:38:48.510Z,100154.16
2023-01-13T11:41:35.781Z,100159.78
2023-01-13T11:44:17.133Z,100151.00
2023-01-13T11:46:44.429Z,100141.28
2023-01-13T11:49:25.073Z,100152.22
2023-01-13T11:52:20.812Z,100158.94
2023-01-13T11:55:22.688Z,100157.41
2023-01-13T11:58:01.966Z,100152.50
2023-01-13T12:00:33.118Z,100155.38
2023-01-13T12:03:18.866Z,100162.84
2023-01-13T12:05:59.925Z,100155.06
2023-01-13T12:08:50.060Z,100154.75
2023-01-13T12:11:58.763Z,100157.09
2023-01-13T12:14:34.744Z,100162.69
2023-01-13T12:17:07.133Z,100169.34
2023-01-13T12:19:34.205Z,100163.72
2023-01-13T12:22:15.302Z,100167.41
2023-01-13T12:24:55.526Z,100159.38
2023-01-13T12:27:49.412Z,100157.19
2023-01-13T12:30:29.712Z,100157.78
2023-01-13T12:33:03.467Z,100168.94
2023-01-13T12:35:42.368Z,100170.28
2023-01-13T12:38:21.291Z,100168.34
2023-01-13T12:41:13.042Z,100175.34
2023-01-13T12:44:05.508Z,100177.47
2023-01-13T12:46:32.440Z,100177.28
2023-01-13T12:49:02.503Z,100177.81
2023-01-13T12:51:33.546Z,100168.75
2023-01-13T12:54:02.460Z,100172.47
2023-01-13T12:56:36.592Z,100171.28
2023-01-13T12:59:24.415Z,100173.00
2023-01-13T13:02:12.913Z,100179.75
2023-01-13T13:04:49.612Z,100172.50
2023-01-13T13:07:32.051Z,100179.25
2023-01-13T13:10:05.276Z,100180.25
2023-01-13T13:13:00.178Z,100176.47
2023-01-13T13:15:30.201Z,100178.91
2023-01-13T13:18:00.442Z,100185.16
2023-01-13T13:21:05.234Z,100188.59
2023-01-13T13:23:50.190Z,100194.78
2023-01-13T13:26:30.879Z,100197.31
2023-01-13T13:29:35.181Z,100195.31
2023-01-13T13:32:17.660Z,100190.06
2023-01-13T13:35:05.828Z,100192.75
2023-01-13T13:38:16.688Z,100197.81
2023-01-13T13:41:06.064Z,100194.03
2023-01-13T13:43:59.320Z,100198.09
2023-01-13T13:46:47.858Z,100192.41
2023-01-13T13:49:18.081Z,100198.25
2023-01-13T13:52:11.069Z,100201.38
2023-01-13T13:54:42.619Z,100207.47
2023-01-13T13:57:23.039Z,100208.41
2023-01-13T13:59:57.777Z,100211.09
2023-01-13T14:02:30.844Z,100205.78
2023-01-13T14:05:27.201Z,100209.00
2023-01-13T14:08:10.407Z,100208.13
2023-01-13T14:10:40.076Z,100208.06
2023-01-13T14:13:19.316Z,100207.22
2023-01-13T14:15:48.397Z,100204.59
2023-01-13T14:18:21.485Z,100202.88
2023-01-13T14:21:00.502Z,100203.31
2023-01-13T14:23:32.650Z,100207.44
2023-01-13T14:26:08.073Z,100202.38
2023-01-13T14:28:37.799Z,100206.63
2023-01-13T14:31:07.105Z,100201.06
2023-01-13T14:33:39.638Z,100209.50
2023-01-13T14:36:15.095Z,100208.22
2023-01-13T14:38:44.629Z,100202.16
2023-01-13T14:41:22.833Z,100200.09
2023-01-13T14:43:51.851Z,100194.28
2023-01-13T14:46:21.197Z,100197.09
2023-01-13T14:48:50.221Z,100194.84
2023-01-13T14:51:27.161Z,100199.69
2023-01-13T14:53:55.094Z,100194.88
2023-01-13T14:56:50.006Z,100204.44
2023-01-13T14:59:36.846Z,100210.78
2023-01-13T15:02:29.184Z,100207.63
2023-01-13T15:05:19.232Z,100209.00
2023-01-13T15:08:09.961Z,100208.81
2023-01-13T15:11:13.405Z,100213.38
2023-01-13T15:13:53.129Z,100209.97
2023-01-13T15:16:28.226Z,100211.97
2023-01-13T15:18:56.505Z,100207.81
2023-01-13T15:21:25.168Z,100204.00
2023-01-13T15:23:52.317Z,100207.63
2023-01-13T15:26:53.390Z,100211.00
2023-01-13T15:46:34.741Z,100193.59
2023-01-13T15:49:35.162Z,100199.00
2023-01-13T15:52:18.095Z,100191.03
2023-01-13T15:54:45.128Z,100205.22
2023-01-13T15:57:33.020Z,100202.78
2023-01-13T16:00:08.613Z,100198.81
2023-01-13T16:02:35.617Z,100192.84
2023-01-13T16:05:02.696Z,100183.69
2023-01-13T16:07:30.680Z,100185.41
2023-01-13T16:13:47.675Z,100173.06
2023-01-13T16:16:25.337Z,100189.38
2023-01-13T16:24:14.856Z,100184.28
2023-01-13T16:26:41.832Z,100188.16
2023-01-13T16:29:12.669Z,100184.13
2023-01-13T16:31:42.431Z,100185.13
2023-01-13T16:34:09.800Z,100195.19
2023-01-13T16:36:37.455Z,100195.44
2023-01-13T16:39:19.312Z,100197.13
2023-01-13T16:41:46.411Z,100192.16
2023-01-13T16:44:16.774Z,100193.94
2023-01-13T16:46:47.823Z,100183.50
2023-01-13T16:49:30.828Z,100190.34
2023-01-13T16:52:05.209Z,100189.34
2023-01-13T16:59:39.524Z,100180.25
2023-01-13T17:02:13.251Z,100179.56
2023-01-13T17:04:40.448Z,100172.69
2023-01-13T17:07:08.635Z,100172.34
2023-01-13T17:09:35.724Z,100188.66
2023-01-13T17:12:02.769Z,100181.22
2023-01-13T17:18:03.235Z,100180.84
2023-01-13T17:20:31.117Z,100179.94
2023-01-13T17:22:58.743Z,100182.72
2023-01-13T17:25:26.522Z,100181.38
2023-01-13T17:27:53.726Z,100188.97
2023-01-13T17:30:21.593Z,100183.66
2023-01-13T17:32:52.986Z,100186.63
2023-01-13T17:35:24.859Z,100190.75
2023-01-13T17:37:53.406Z,100184.50
2023-01-13T17:40:20.836Z,100194.28
2023-01-13T17:42:48.039Z,100194.56
2023-01-13T17:45:16.551Z,100189.31
2023-01-13T17:47:44.106Z,100197.44
2023-01-13T17:50:11.835Z,100182.72
2023-01-13T17:52:39.390Z,100187.28
2023-01-13T17:55:14.094Z,100189.91
2023-01-13T17:57:46.140Z,100190.81
2023-01-13T18:00:14.766Z,100189.63
2023-01-13T18:02:46.843Z,100188.25
2023-01-13T18:05:14.523Z,100193.97
2023-01-13T18:07:49.900Z,100202.84
2023-01-13T18:10:34.247Z,100192.66
2023-01-13T18:13:03.670Z,100200.94
2023-01-13T18:15:31.239Z,100198.38
2023-01-13T18:17:58.530Z,100196.88
2023-01-13T18:20:47.599Z,100195.06
2023-01-13T18:23:47.584Z,100201.25
2023-01-13T18:26:37.962Z,100206.41
2023-01-13T18:29:06.085Z,100190.16
2023-01-13T18:31:33.239Z,100185.25
2023-01-13T18:34:07.229Z,100186.22
2023-01-13T18:41:25.407Z,100186.00
2023-01-13T18:43:52.604Z,100182.88
2023-01-13T18:46:19.734Z,100185.03
2023-01-13T18:48:46.802Z,100189.28
2023-01-13T18:51:14.039Z,100185.91
2023-01-13T18:53:41.155Z,100193.50
2023-01-13T18:56:13.223Z,100187.59
2023-01-13T18:58:51.852Z,100186.69
2023-01-13T19:01:25.841Z,100184.13
2023-01-13T19:03:57.104Z,100184.31
2023-01-13T19:06:35.264Z,100196.13
2023-01-13T19:09:08.853Z,100188.91
2023-01-13T19:11:57.212Z,100191.78
2023-01-13T19:15:31.402Z,100183.72
2023-01-13T19:18:09.787Z,100191.47
2023-01-13T19:21:05.478Z,100194.09
2023-01-13T19:23:49.563Z,100198.88
2023-01-13T19:26:17.894Z,100190.97
2023-01-13T19:28:45.758Z,100189.16
2023-01-13T19:31:14.248Z,100185.91
2023-01-13T19:33:41.581Z,100187.25
2023-01-13T19:36:10.860Z,100186.88
2023-01-13T19:38:38.606Z,100190.81
2023-01-13T19:41:27.766Z,100194.09
2023-01-13T19:44:39.489Z,100196.47
2023-01-13T19:47:06.768Z,100195.34
2023-01-13T19:49:34.587Z,100189.72
2023-01-13T19:52:01.855Z,100187.06
2023-01-13T19:54:29.081Z,100190.13
2023-01-13T19:56:56.267Z,100184.25
2023-01-13T19:59:29.266Z,100183.91
2023-01-13T20:02:33.475Z,100193.25
2023-01-13T20:05:03.417Z,100185.09
2023-01-13T20:07:31.085Z,100188.13
2023-01-13T20:09:58.425Z,100198.69
2023-01-13T20:12:27.532Z,100197.50
2023-01-13T20:14:55.063Z,100190.09
2023-01-13T20:17:22.448Z,100187.91
2023-01-13T20:19:49.435Z,100184.16
2023-01-13T20:22:16.426Z,100196.97
2023-01-13T20:24:43.540Z,100196.88
2023-01-13T20:27:10.878Z,100193.28
2023-01-13T20:29:38.054Z,100196.38
2023-01-13T20:32:05.337Z,100186.81
2023-01-13T20:34:32.573Z,100191.22
2023-01-13T20:37:00.456Z,100200.09
2023-01-13T20:39:28.229Z,100199.13
2023-01-13T20:42:14.928Z,100194.72
2023-01-13T20:44:44.166Z,100191.06
2023-01-13T20:47:11.433Z,100204.97
2023-01-13T20:49:41.742Z,100190.44
2023-01-13T20:52:11.476Z,100184.66
2023-01-13T20:54:40.139Z,100190.47
2023-01-13T20:57:10.036Z,100192.91
2023-01-13T20:59:38.764Z,100184.97
2023-01-13T21:02:08.247Z,100190.69
2023-01-13T21:04:35.194Z,100182.78
2023-01-13T21:07:02.215Z,100187.13
2023-01-13T21:09:29.406Z,100187.69
2023-01-13T21:12:15.277Z,100186.75
2023-01-13T21:15:00.693Z,100180.47
2023-01-13T21:17:46.255Z,100171.75
2023-01-13T21:20:14.894Z,100182.63
2023-01-13T21:22:46.753Z,100181.50
2023-01-13T21:25:14.559Z,100175.13
2023-01-13T21:27:44.004Z,100184.88
2023-01-13T21:30:14.968Z,100182.44
2023-01-13T21:32:44.363Z,100175.69
2023-01-13T21:35:12.807Z,100172.78
2023-01-13T21:37:41.711Z,100177.19
2023-01-13T21:40:13.089Z,100167.63
2023-01-13T21:42:59.295Z,100172.31
2023-01-13T21:45:49.427Z,100177.94
2023-01-13T21:48:16.570Z,100172.69
2023-01-13T21:50:43.737Z,100176.91
2023-01-13T21:53:11.308Z,100178.69
2023-01-13T21:55:38.285Z,100180.50
2023-01-13T21:58:14.079Z,100179.56
2023-01-13T22:00:45.411Z,100172.88
2023-01-13T22:03:14.068Z,100176.25
2023-01-13T22:05:41.242Z,100170.63
2023-01-13T22:08:08.745Z,100165.00
2023-01-13T22:10:36.131Z,100164.44
2023-01-13T22:13:23.664Z,100167.56
2023-01-13T22:15:50.712Z,100165.00
2023-01-13T22:18:20.489Z,100157.44
2023-01-13T22:20:48.845Z,100160.13
2023-01-13T22:23:16.088Z,100157.53
2023-01-13T22:25:43.058Z,100168.31
2023-01-13T22:28:13.888Z,100160.88
2023-01-13T22:30:41.196Z,100157.38
2023-01-13T22:33:08.191Z,100162.00
2023-01-13T22:35:35.159Z,100165.22
2023-01-13T22:38:02.281Z,100159.28
2023-01-13T22:40:29.256Z,100161.44
2023-01-13T22:42:56.397Z,100165.47
2023-01-13T22:45:23.357Z,100162.38
2023-01-13T22:47:50.290Z,100168.78
2023-01-13T22:50:20.805Z,100168.19
2023-01-13T22:52:47.965Z,100166.34
2023-01-13T22:55:15.061Z,100174.22
2023-01-13T22:57:47.787Z,100168.78
2023-01-13T23:00:19.239Z,100172.63
2023-01-13T23:02:46.740Z,100167.63
2023-01-13T23:05:14.186Z,100170.06
2023-01-13T23:07:41.421Z,100161.56
2023-01-13T23:10:09.125Z,100171.88
2023-01-13T23:12:36.101Z,100163.78
2023-01-13T23:15:03.797Z,100165.19
2023-01-13T23:17:31.142Z,100167.56
2023-01-13T23:19:58.178Z,100168.47
2023-01-13T23:22:25.123Z,100163.78
2023-01-13T23:24:52.063Z,100163.22
2023-01-13T23:27:19.148Z,100168.00
2023-01-13T23:29:46.143Z,100172.31
2023-01-13T23:32:13.081Z,100177.56
2023-01-13T23:34:40.096Z,100171.66
2023-01-13T23:37:07.039Z,100170.72
2023-01-13T23:39:34.026Z,100162.94
2023-01-13T23:42:01.048Z,100160.69
2023-01-13T23:44:28.050Z,100166.94
2023-01-13T23:46:55.132Z,100161.22
2023-01-13T23:49:22.135Z,100167.25
2023-01-13T23:51:52.348Z,100172.50
2023-01-13T23:54:20.216Z,100169.88
2023-01-13T23:56:49.619Z,100176.16
2023-01-13T23:59:16.727Z,100168.16
